sensor_id;sensor_type;location;lat;lon;timestamp;temperature;humidity
46706;DHT22;33519;50.712;7.124;2022-12-18T00:01:04;-5.70;99.90
46706;DHT22;33519;50.712;7.124;2022-12-18T00:03:35;-5.70;99.90
46706;DHT22;33519;50.712;7.124;2022-12-18T00:06:03;-5.80;99.90
46706;DHT22;33519;50.712;7.124;2022-12-18T00:08:30;-5.90;99.90
46706;DHT22;33519;50.712;7.124;2022-12-18T00:11:04;-5.90;99.90
46706;DHT22;33519;50.712;7.124;2022-12-18T00:13:32;-6.10;99.90
46706;DHT22;33519;50.712;7.124;2022-12-18T00:16:09;-6.10;99.90
46706;DHT22;33519;50.712;7.124;2022-12-18T00:18:36;-6.20;99.90
46706;DHT22;33519;50.712;7.124;2022-12-18T00:21:05;-6.20;99.90
46706;DHT22;33519;50.712;7.124;2022-12-18T00:23:34;-6.30;99.90
46706;DHT22;33519;50.712;7.124;2022-12-18T00:26:04;-6.40;99.90
46706;DHT22;33519;50.712;7.124;2022-12-18T00:28:32;-6.40;99.90
46706;DHT22;33519;50.712;7.124;2022-12-18T00:31:06;-6.40;99.90
46706;DHT22;33519;50.712;7.124;2022-12-18T00:33:34;-6.40;99.90
46706;DHT22;33519;50.712;7.124;2022-12-18T00:36:02;-6.40;99.90
46706;DHT22;33519;50.712;7.124;2022-12-18T00:38:29;-6.40;99.90
46706;DHT22;33519;50.712;7.124;2022-12-18T00:40:56;-6.30;99.90
46706;DHT22;33519;50.712;7.124;2022-12-18T00:43:23;-6.30;99.90
46706;DHT22;33519;50.712;7.124;2022-12-18T00:45:50;-6.30;99.90
46706;DHT22;33519;50.712;7.124;2022-12-18T00:48:17;-6.30;99.90
46706;DHT22;33519;50.712;7.124;2022-12-18T00:50:43;-6.30;99.90
46706;DHT22;33519;50.712;7.124;2022-12-18T00:53:11;-6.40;99.90
46706;DHT22;33519;50.712;7.124;2022-12-18T00:55:42;-6.50;99.90
46706;DHT22;33519;50.712;7.124;2022-12-18T00:58:10;-6.50;99.90
46706;DHT22;33519;50.712;7.124;2022-12-18T01:00:37;-6.50;99.90
46706;DHT22;33519;50.712;7.124;2022-12-18T01:03:05;-6.60;99.90
46706;DHT22;33519;50.712;7.124;2022-12-18T01:05:32;-6.60;99.90
46706;DHT22;33519;50.712;7.124;2022-12-18T01:07:59;-6.60;99.90
46706;DHT22;33519;50.712;7.124;2022-12-18T01:10:26;-6.60;99.90
46706;DHT22;33519;50.712;7.124;2022-12-18T01:12:53;-6.60;99.90
46706;DHT22;33519;50.712;7.124;2022-12-18T01:15:20;-6.70;99.90
46706;DHT22;33519;50.712;7.124;2022-12-18T01:17:46;-6.70;99.90
46706;DHT22;33519;50.712;7.124;2022-12-18T01:20:13;-6.70;99.90
46706;DHT22;33519;50.712;7.124;2022-12-18T01:22:40;-6.60;99.90
46706;DHT22;33519;50.712;7.124;2022-12-18T01:25:07;-6.60;99.90
46706;DHT22;33519;50.712;7.124;2022-12-18T01:27:34;-6.50;99.90
46706;DHT22;33519;50.712;7.124;2022-12-18T01:30:01;-6.40;99.90
46706;DHT22;33519;50.712;7.124;2022-12-18T01:32:30;-6.40;99.90
46706;DHT22;33519;50.712;7.124;2022-12-18T01:34:57;-6.40;99.90
46706;DHT22;33519;50.712;7.124;2022-12-18T01:37:24;-6.50;99.90
46706;DHT22;33519;50.712;7.124;2022-12-18T01:39:52;-6.60;99.90
46706;DHT22;33519;50.712;7.124;2022-12-18T01:42:21;-6.60;99.90
46706;DHT22;33519;50.712;7.124;2022-12-18T01:47:45;-6.60;99.90
46706;DHT22;33519;50.712;7.124;2022-12-18T01:50:16;-6.60;99.90
46706;DHT22;33519;50.712;7.124;2022-12-18T01:52:47;-6.60;99.90
46706;DHT22;33519;50.712;7.124;2022-12-18T01:55:17;-6.70;99.90
46706;DHT22;33519;50.712;7.124;2022-12-18T01:57:45;-6.70;99.90
46706;DHT22;33519;50.712;7.124;2022-12-18T02:00:16;-6.70;99.90
46706;DHT22;33519;50.712;7.124;2022-12-18T02:02:44;-6.80;99.90
46706;DHT22;33519;50.712;7.124;2022-12-18T02:05:21;-6.80;99.90
46706;DHT22;33519;50.712;7.124;2022-12-18T02:07:56;-6.80;99.90
46706;DHT22;33519;50.712;7.124;2022-12-18T02:10:31;-6.80;99.90
46706;DHT22;33519;50.712;7.124;2022-12-18T02:13:13;-6.80;99.90
46706;DHT22;33519;50.712;7.124;2022-12-18T02:15:50;-6.70;99.90
46706;DHT22;33519;50.712;7.124;2022-12-18T02:18:37;-6.70;99.90
46706;DHT22;33519;50.712;7.124;2022-12-18T02:21:31;-6.60;99.90
46706;DHT22;33519;50.712;7.124;2022-12-18T02:24:15;-6.60;99.90
46706;DHT22;33519;50.712;7.124;2022-12-18T02:26:53;-6.50;99.90
46706;DHT22;33519;50.712;7.124;2022-12-18T02:29:37;-6.50;99.90
46706;DHT22;33519;50.712;7.124;2022-12-18T02:32:10;-6.50;99.90
46706;DHT22;33519;50.712;7.124;2022-12-18T02:34:39;-6.50;99.90
46706;DHT22;33519;50.712;7.124;2022-12-18T02:37:09;-6.60;99.90
46706;DHT22;33519;50.712;7.124;2022-12-18T02:39:40;-6.70;99.90
46706;DHT22;33519;50.712;7.124;2022-12-18T02:42:08;-6.80;99.90
46706;DHT22;33519;50.712;7.124;2022-12-18T02:44:46;-6.80;99.90
46706;DHT22;33519;50.712;7.124;2022-12-18T02:47:15;-6.80;99.90
46706;DHT22;33519;50.712;7.124;2022-12-18T02:50:07;-6.80;99.90
46706;DHT22;33519;50.712;7.124;2022-12-18T03:06:32;-6.70;99.90
46706;DHT22;33519;50.712;7.124;2022-12-18T03:09:03;-6.70;99.90
46706;DHT22;33519;50.712;7.124;2022-12-18T03:11:34;-6.60;99.90
46706;DHT22;33519;50.712;7.124;2022-12-18T03:14:22;-6.70;99.90
46706;DHT22;33519;50.712;7.124;2022-12-18T03:16:52;-6.70;99.90
46706;DHT22;33519;50.712;7.124;2022-12-18T03:19:21;-6.70;99.90
46706;DHT22;33519;50.712;7.124;2022-12-18T03:21:54;-6.70;99.90
46706;DHT22;33519;50.712;7.124;2022-12-18T03:24:23;-6.60;99.90
46706;DHT22;33519;50.712;7.124;2022-12-18T03:26:52;-6.70;99.90
46706;DHT22;33519;50.712;7.124;2022-12-18T03:29:33;-6.80;99.90
46706;DHT22;33519;50.712;7.124;2022-12-18T03:32:12;-6.80;99.90
46706;DHT22;33519;50.712;7.124;2022-12-18T03:34:40;-6.90;99.90
46706;DHT22;33519;50.712;7.124;2022-12-18T03:37:11;-6.90;99.90
46706;DHT22;33519;50.712;7.124;2022-12-18T03:50:23;-7.00;99.90
46706;DHT22;33519;50.712;7.124;2022-12-18T03:55:53;-6.90;99.90
46706;DHT22;33519;50.712;7.124;2022-12-18T03:58:24;-6.90;99.90
46706;DHT22;33519;50.712;7.124;2022-12-18T04:00:56;-6.90;99.90
46706;DHT22;33519;50.712;7.124;2022-12-18T04:03:26;-6.90;99.90
46706;DHT22;33519;50.712;7.124;2022-12-18T04:05:55;-6.90;99.90
46706;DHT22;33519;50.712;7.124;2022-12-18T04:08:23;-6.90;99.90
46706;DHT22;33519;50.712;7.124;2022-12-18T04:10:51;-6.90;99.90
46706;DHT22;33519;50.712;7.124;2022-12-18T04:13:27;-7.00;99.90
46706;DHT22;33519;50.712;7.124;2022-12-18T04:16:04;-7.00;99.90
46706;DHT22;33519;50.712;7.124;2022-12-18T04:18:31;-7.00;99.90
46706;DHT22;33519;50.712;7.124;2022-12-18T04:20:57;-7.00;99.90
46706;DHT22;33519;50.712;7.124;2022-12-18T04:23:24;-7.00;99.90
46706;DHT22;33519;50.712;7.124;2022-12-18T04:25:51;-7.10;99.90
46706;DHT22;33519;50.712;7.124;2022-12-18T04:28:17;-7.10;99.90
46706;DHT22;33519;50.712;7.124;2022-12-18T04:30:44;-7.20;99.90
46706;DHT22;33519;50.712;7.124;2022-12-18T04:33:12;-7.30;99.90
46706;DHT22;33519;50.712;7.124;2022-12-18T04:35:40;-7.30;99.90
46706;DHT22;33519;50.712;7.124;2022-12-18T04:38:08;-7.40;99.90
46706;DHT22;33519;50.712;7.124;2022-12-18T04:40:37;-7.50;99.90
46706;DHT22;33519;50.712;7.124;2022-12-18T04:43:04;-7.50;99.90
46706;DHT22;33519;50.712;7.124;2022-12-18T04:45:31;-7.50;99.90
46706;DHT22;33519;50.712;7.124;2022-12-18T04:47:59;-7.60;99.90
46706;DHT22;33519;50.712;7.124;2022-12-18T04:50:26;-7.60;99.90
46706;DHT22;33519;50.712;7.124;2022-12-18T04:52:53;-7.60;99.90
46706;DHT22;33519;50.712;7.124;2022-12-18T04:55:21;-7.60;99.90
46706;DHT22;33519;50.712;7.124;2022-12-18T04:57:51;-7.50;99.90
46706;DHT22;33519;50.712;7.124;2022-12-18T05:00:18;-7.50;99.90
46706;DHT22;33519;50.712;7.124;2022-12-18T05:02:44;-7.60;99.90
46706;DHT22;33519;50.712;7.124;2022-12-18T05:05:11;-7.50;99.90
46706;DHT22;33519;50.712;7.124;2022-12-18T05:07:38;-7.40;99.90
46706;DHT22;33519;50.712;7.124;2022-12-18T05:10:05;-7.30;99.90
46706;DHT22;33519;50.712;7.124;2022-12-18T05:12:32;-7.30;99.90
46706;DHT22;33519;50.712;7.124;2022-12-18T05:14:59;-7.20;99.90
46706;DHT22;33519;50.712;7.124;2022-12-18T05:17:25;-7.10;99.90
46706;DHT22;33519;50.712;7.124;2022-12-18T05:19:52;-7.20;99.90
46706;DHT22;33519;50.712;7.124;2022-12-18T05:22:19;-7.10;99.90
46706;DHT22;33519;50.712;7.124;2022-12-18T05:24:49;-7.00;99.90
46706;DHT22;33519;50.712;7.124;2022-12-18T05:27:16;-7.00;99.90
46706;DHT22;33519;50.712;7.124;2022-12-18T05:29:42;-7.00;99.90
46706;DHT22;33519;50.712;7.124;2022-12-18T05:32:09;-7.00;99.90
46706;DHT22;33519;50.712;7.124;2022-12-18T05:34:36;-7.00;99.90
46706;DHT22;33519;50.712;7.124;2022-12-18T05:37:02;-7.00;99.90
46706;DHT22;33519;50.712;7.124;2022-12-18T05:39:29;-7.00;99.90
46706;DHT22;33519;50.712;7.124;2022-12-18T05:41:56;-7.10;99.90
46706;DHT22;33519;50.712;7.124;2022-12-18T05:44:22;-7.10;99.90
46706;DHT22;33519;50.712;7.124;2022-12-18T05:46:49;-7.10;99.90
46706;DHT22;33519;50.712;7.124;2022-12-18T05:49:16;-7.10;99.90
46706;DHT22;33519;50.712;7.124;2022-12-18T05:51:42;-7.10;99.90
46706;DHT22;33519;50.712;7.124;2022-12-18T05:54:09;-7.10;99.90
46706;DHT22;33519;50.712;7.124;2022-12-18T05:56:36;-7.10;99.90
46706;DHT22;33519;50.712;7.124;2022-12-18T05:59:02;-7.10;99.90
46706;DHT22;33519;50.712;7.124;2022-12-18T06:01:29;-7.10;99.90
46706;DHT22;33519;50.712;7.124;2022-12-18T06:03:56;-7.10;99.90
46706;DHT22;33519;50.712;7.124;2022-12-18T06:06:25;-7.10;99.90
46706;DHT22;33519;50.712;7.124;2022-12-18T06:08:53;-7.10;99.90
46706;DHT22;33519;50.712;7.124;2022-12-18T06:11:23;-7.20;99.90
46706;DHT22;33519;50.712;7.124;2022-12-18T06:13:52;-7.10;99.90
46706;DHT22;33519;50.712;7.124;2022-12-18T06:16:24;-7.00;99.90
46706;DHT22;33519;50.712;7.124;2022-12-18T06:18:51;-6.90;99.90
46706;DHT22;33519;50.712;7.124;2022-12-18T06:21:17;-6.80;99.90
46706;DHT22;33519;50.712;7.124;2022-12-18T06:23:44;-6.70;99.90
46706;DHT22;33519;50.712;7.124;2022-12-18T06:26:12;-6.50;99.90
46706;DHT22;33519;50.712;7.124;2022-12-18T06:28:39;-6.50;99.90
46706;DHT22;33519;50.712;7.124;2022-12-18T06:31:07;-6.40;99.90
46706;DHT22;33519;50.712;7.124;2022-12-18T06:33:34;-6.30;99.90
46706;DHT22;33519;50.712;7.124;2022-12-18T06:36:03;-6.40;99.90
46706;DHT22;33519;50.712;7.124;2022-12-18T06:38:32;-6.40;99.90
46706;DHT22;33519;50.712;7.124;2022-12-18T06:40:59;-6.40;99.90
46706;DHT22;33519;50.712;7.124;2022-12-18T06:43:26;-6.30;99.90
46706;DHT22;33519;50.712;7.124;2022-12-18T06:45:59;-6.30;99.90
46706;DHT22;33519;50.712;7.124;2022-12-18T06:48:40;-6.20;99.90
46706;DHT22;33519;50.712;7.124;2022-12-18T06:51:07;-6.20;99.90
46706;DHT22;33519;50.712;7.124;2022-12-18T06:53:33;-6.20;99.90
46706;DHT22;33519;50.712;7.124;2022-12-18T06:56:02;-6.20;99.90
46706;DHT22;33519;50.712;7.124;2022-12-18T06:58:35;-6.10;99.90
46706;DHT22;33519;50.712;7.124;2022-12-18T07:01:04;-6.10;99.90
46706;DHT22;33519;50.712;7.124;2022-12-18T07:03:32;-6.10;99.90
46706;DHT22;33519;50.712;7.124;2022-12-18T07:05:58;-6.10;99.90
46706;DHT22;33519;50.712;7.124;2022-12-18T07:08:25;-6.10;99.90
46706;DHT22;33519;50.712;7.124;2022-12-18T07:10:52;-6.10;99.90
46706;DHT22;33519;50.712;7.124;2022-12-18T07:13:22;-6.10;99.90
46706;DHT22;33519;50.712;7.124;2022-12-18T07:15:49;-6.10;99.90
46706;DHT22;33519;50.712;7.124;2022-12-18T07:18:25;-6.10;99.90
46706;DHT22;33519;50.712;7.124;2022-12-18T07:20:51;-6.10;99.90
46706;DHT22;33519;50.712;7.124;2022-12-18T07:23:18;-6.00;99.90
46706;DHT22;33519;50.712;7.124;2022-12-18T07:25:46;-6.00;99.90
46706;DHT22;33519;50.712;7.124;2022-12-18T07:28:13;-6.00;99.90
46706;DHT22;33519;50.712;7.124;2022-12-18T07:30:44;-5.90;99.90
46706;DHT22;33519;50.712;7.124;2022-12-18T07:33:21;-5.90;99.90
46706;DHT22;33519;50.712;7.124;2022-12-18T07:35:47;-5.90;99.90
46706;DHT22;33519;50.712;7.124;2022-12-18T07:38:14;-5.90;99.90
46706;DHT22;33519;50.712;7.124;2022-12-18T07:40:40;-5.90;99.90
46706;DHT22;33519;50.712;7.124;2022-12-18T07:43:07;-5.80;99.90
46706;DHT22;33519;50.712;7.124;2022-12-18T07:45:34;-5.80;99.90
46706;DHT22;33519;50.712;7.124;2022-12-18T07:48:00;-5.80;99.90
46706;DHT22;33519;50.712;7.124;2022-12-18T07:50:27;-5.80;99.90
46706;DHT22;33519;50.712;7.124;2022-12-18T07:52:54;-5.80;99.90
46706;DHT22;33519;50.712;7.124;2022-12-18T07:55:20;-5.80;99.90
46706;DHT22;33519;50.712;7.124;2022-12-18T07:57:47;-5.80;99.90
46706;DHT22;33519;50.712;7.124;2022-12-18T08:00:18;-5.80;99.90
46706;DHT22;33519;50.712;7.124;2022-12-18T08:02:44;-5.70;99.90
46706;DHT22;33519;50.712;7.124;2022-12-18T08:05:11;-5.70;99.90
46706;DHT22;33519;50.712;7.124;2022-12-18T08:07:38;-5.70;99.90
46706;DHT22;33519;50.712;7.124;2022-12-18T08:10:05;-5.60;99.90
46706;DHT22;33519;50.712;7.124;2022-12-18T08:12:32;-5.60;99.90
46706;DHT22;33519;50.712;7.124;2022-12-18T08:14:59;-5.50;99.90
46706;DHT22;33519;50.712;7.124;2022-12-18T08:17:25;-5.40;99.90
46706;DHT22;33519;50.712;7.124;2022-12-18T08:19:52;-5.40;99.90
46706;DHT22;33519;50.712;7.124;2022-12-18T08:22:19;-5.30;99.90
46706;DHT22;33519;50.712;7.124;2022-12-18T08:24:45;-4.90;99.90
46706;DHT22;33519;50.712;7.124;2022-12-18T08:27:12;-4.40;99.90
46706;DHT22;33519;50.712;7.124;2022-12-18T08:29:55;-4.10;99.90
46706;DHT22;33519;50.712;7.124;2022-12-18T08:32:22;-3.80;99.90
46706;DHT22;33519;50.712;7.124;2022-12-18T08:34:49;-3.50;99.90
46706;DHT22;33519;50.712;7.124;2022-12-18T08:37:18;-3.40;99.90
46706;DHT22;33519;50.712;7.124;2022-12-18T08:39:44;-3.50;99.90
46706;DHT22;33519;50.712;7.124;2022-12-18T08:42:11;-3.60;99.90
46706;DHT22;33519;50.712;7.124;2022-12-18T08:45:00;-3.40;99.90
46706;DHT22;33519;50.712;7.124;2022-12-18T08:47:27;-3.30;99.90
46706;DHT22;33519;50.712;7.124;2022-12-18T08:49:54;-3.40;99.90
46706;DHT22;33519;50.712;7.124;2022-12-18T08:52:21;-3.40;99.90
46706;DHT22;33519;50.712;7.124;2022-12-18T08:54:47;-3.30;99.90
46706;DHT22;33519;50.712;7.124;2022-12-18T08:57:14;-3.10;99.90
46706;DHT22;33519;50.712;7.124;2022-12-18T08:59:41;-2.80;99.90
46706;DHT22;33519;50.712;7.124;2022-12-18T09:02:11;-2.50;99.90
46706;DHT22;33519;50.712;7.124;2022-12-18T09:04:38;-2.40;99.90
46706;DHT22;33519;50.712;7.124;2022-12-18T09:07:06;-2.20;99.90
46706;DHT22;33519;50.712;7.124;2022-12-18T09:09:33;-1.80;99.90
46706;DHT22;33519;50.712;7.124;2022-12-18T09:12:00;-1.60;99.90
46706;DHT22;33519;50.712;7.124;2022-12-18T09:14:26;-1.40;99.90
46706;DHT22;33519;50.712;7.124;2022-12-18T09:16:53;-1.30;99.90
46706;DHT22;33519;50.712;7.124;2022-12-18T09:19:23;-1.00;99.90
46706;DHT22;33519;50.712;7.124;2022-12-18T09:21:50;-1.10;99.90
46706;DHT22;33519;50.712;7.124;2022-12-18T09:24:22;-1.90;99.90
46706;DHT22;33519;50.712;7.124;2022-12-18T09:26:53;-2.40;99.90
46706;DHT22;33519;50.712;7.124;2022-12-18T09:29:23;-2.40;99.90
46706;DHT22;33519;50.712;7.124;2022-12-18T09:31:50;-2.40;99.90
46706;DHT22;33519;50.712;7.124;2022-12-18T09:34:17;-2.00;99.90
46706;DHT22;33519;50.712;7.124;2022-12-18T09:36:44;-1.70;99.90
46706;DHT22;33519;50.712;7.124;2022-12-18T09:39:12;-1.40;99.90
46706;DHT22;33519;50.712;7.124;2022-12-18T09:44:28;-0.30;99.90
46706;DHT22;33519;50.712;7.124;2022-12-18T09:47:12;-0.70;99.90
46706;DHT22;33519;50.712;7.124;2022-12-18T09:49:47;-0.50;99.90
46706;DHT22;33519;50.712;7.124;2022-12-18T09:52:35;-1.10;99.90
46706;DHT22;33519;50.712;7.124;2022-12-18T09:58:29;-1.60;99.90
46706;DHT22;33519;50.712;7.124;2022-12-18T10:00:57;-1.80;99.90
46706;DHT22;33519;50.712;7.124;2022-12-18T10:03:23;-1.90;99.90
46706;DHT22;33519;50.712;7.124;2022-12-18T10:06:21;-1.90;99.90
46706;DHT22;33519;50.712;7.124;2022-12-18T10:08:54;-2.20;99.90
46706;DHT22;33519;50.712;7.124;2022-12-18T10:11:39;-2.10;99.90
46706;DHT22;33519;50.712;7.124;2022-12-18T10:14:30;-2.00;99.90
46706;DHT22;33519;50.712;7.124;2022-12-18T10:17:12;-1.70;99.90
46706;DHT22;33519;50.712;7.124;2022-12-18T10:19:54;-1.90;99.90
46706;DHT22;33519;50.712;7.124;2022-12-18T10:27:30;-1.90;99.90
46706;DHT22;33519;50.712;7.124;2022-12-18T10:29:58;-1.70;99.90
46706;DHT22;33519;50.712;7.124;2022-12-18T10:32:34;-1.20;99.90
46706;DHT22;33519;50.712;7.124;2022-12-18T10:35:01;-1.10;99.90
46706;DHT22;33519;50.712;7.124;2022-12-18T10:37:29;-0.70;99.90
46706;DHT22;33519;50.712;7.124;2022-12-18T10:40:16;-0.20;99.90
46706;DHT22;33519;50.712;7.124;2022-12-18T10:43:10;-0.30;99.90
46706;DHT22;33519;50.712;7.124;2022-12-18T10:45:38;-0.60;99.90
46706;DHT22;33519;50.712;7.124;2022-12-18T10:48:18;-0.60;99.90
46706;DHT22;33519;50.712;7.124;2022-12-18T10:50:49;-0.40;99.90
46706;DHT22;33519;50.712;7.124;2022-12-18T10:53:37;-0.90;99.90
46706;DHT22;33519;50.712;7.124;2022-12-18T10:56:05;-1.00;99.90
46706;DHT22;33519;50.712;7.124;2022-12-18T10:58:35;-1.30;99.90
46706;DHT22;33519;50.712;7.124;2022-12-18T11:03:33;-1.10;99.90
46706;DHT22;33519;50.712;7.124;2022-12-18T11:06:06;-1.30;99.90
46706;DHT22;33519;50.712;7.124;2022-12-18T11:08:33;-1.50;99.90
46706;DHT22;33519;50.712;7.124;2022-12-18T11:11:00;-1.40;99.90
46706;DHT22;33519;50.712;7.124;2022-12-18T11:13:29;-1.20;99.90
46706;DHT22;33519;50.712;7.124;2022-12-18T11:15:56;-1.20;99.90
46706;DHT22;33519;50.712;7.124;2022-12-18T11:18:29;-1.30;99.90
46706;DHT22;33519;50.712;7.124;2022-12-18T11:21:08;-1.30;99.90
46706;DHT22;33519;50.712;7.124;2022-12-18T11:23:36;-1.40;99.90
46706;DHT22;33519;50.712;7.124;2022-12-18T11:26:05;-1.40;99.90
46706;DHT22;33519;50.712;7.124;2022-12-18T11:28:42;-1.50;99.90
46706;DHT22;33519;50.712;7.124;2022-12-18T11:31:27;-1.50;99.90
46706;DHT22;33519;50.712;7.124;2022-12-18T11:36:54;-1.70;99.90
46706;DHT22;33519;50.712;7.124;2022-12-18T11:42:20;-1.80;99.90
46706;DHT22;33519;50.712;7.124;2022-12-18T11:47:39;-1.80;99.90
46706;DHT22;33519;50.712;7.124;2022-12-18T11:53:03;-1.90;99.90
46706;DHT22;33519;50.712;7.124;2022-12-18T11:58:48;-2.00;99.90
46706;DHT22;33519;50.712;7.124;2022-12-18T12:04:38;-2.00;99.90
46706;DHT22;33519;50.712;7.124;2022-12-18T12:07:25;-2.10;99.90
46706;DHT22;33519;50.712;7.124;2022-12-18T12:13:05;-2.10;99.90
46706;DHT22;33519;50.712;7.124;2022-12-18T12:16:26;-2.10;99.90
46706;DHT22;33519;50.712;7.124;2022-12-18T12:22:02;-2.10;99.90
46706;DHT22;33519;50.712;7.124;2022-12-18T12:24:49;-2.10;99.90
46706;DHT22;33519;50.712;7.124;2022-12-18T12:27:46;-2.00;99.90
46706;DHT22;33519;50.712;7.124;2022-12-18T12:30:39;-2.00;99.90
46706;DHT22;33519;50.712;7.124;2022-12-18T12:35:59;-2.00;99.90
46706;DHT22;33519;50.712;7.124;2022-12-18T12:38:40;-2.00;99.90
46706;DHT22;33519;50.712;7.124;2022-12-18T12:41:20;-1.90;99.90
46706;DHT22;33519;50.712;7.124;2022-12-18T12:44:09;-1.90;99.90
46706;DHT22;33519;50.712;7.124;2022-12-18T12:46:41;-1.90;99.90
46706;DHT22;33519;50.712;7.124;2022-12-18T12:49:18;-1.80;99.90
46706;DHT22;33519;50.712;7.124;2022-12-18T12:51:50;-1.90;99.90
46706;DHT22;33519;50.712;7.124;2022-12-18T12:54:23;-1.80;99.90
46706;DHT22;33519;50.712;7.124;2022-12-18T12:57:09;-1.70;99.90
46706;DHT22;33519;50.712;7.124;2022-12-18T13:02:29;-1.70;99.90
46706;DHT22;33519;50.712;7.124;2022-12-18T13:08:09;-1.60;99.90
46706;DHT22;33519;50.712;7.124;2022-12-18T13:10:39;-1.60;99.90
46706;DHT22;33519;50.712;7.124;2022-12-18T13:13:14;-1.50;99.90
46706;DHT22;33519;50.712;7.124;2022-12-18T13:16:06;-1.60;99.90
46706;DHT22;33519;50.712;7.124;2022-12-18T13:18:34;-1.60;99.90
46706;DHT22;33519;50.712;7.124;2022-12-18T13:21:08;-1.60;99.90
46706;DHT22;33519;50.712;7.124;2022-12-18T13:23:39;-1.50;99.90
46706;DHT22;33519;50.712;7.124;2022-12-18T13:34:28;-1.70;99.90
46706;DHT22;33519;50.712;7.124;2022-12-18T13:39:58;-1.70;99.90
46706;DHT22;33519;50.712;7.124;2022-12-18T13:42:36;-1.80;99.90
46706;DHT22;33519;50.712;7.124;2022-12-18T13:45:41;-1.80;99.90
46706;DHT22;33519;50.712;7.124;2022-12-18T13:48:18;-1.90;99.90
46706;DHT22;33519;50.712;7.124;2022-12-18T13:50:49;-1.90;99.90
46706;DHT22;33519;50.712;7.124;2022-12-18T13:53:23;-1.90;99.90
46706;DHT22;33519;50.712;7.124;2022-12-18T13:55:51;-1.90;99.90
46706;DHT22;33519;50.712;7.124;2022-12-18T13:58:18;-1.90;99.90
46706;DHT22;33519;50.712;7.124;2022-12-18T14:00:45;-2.00;99.90
46706;DHT22;33519;50.712;7.124;2022-12-18T14:03:28;-1.90;99.90
46706;DHT22;33519;50.712;7.124;2022-12-18T14:06:05;-1.90;99.90
46706;DHT22;33519;50.712;7.124;2022-12-18T14:08:41;-1.90;99.90
46706;DHT22;33519;50.712;7.124;2022-12-18T14:11:20;-1.90;99.90
46706;DHT22;33519;50.712;7.124;2022-12-18T14:13:48;-1.90;99.90
46706;DHT22;33519;50.712;7.124;2022-12-18T14:16:17;-2.00;99.90
46706;DHT22;33519;50.712;7.124;2022-12-18T14:18:57;-2.00;99.90
46706;DHT22;33519;50.712;7.124;2022-12-18T14:21:46;-2.00;99.90
46706;DHT22;33519;50.712;7.124;2022-12-18T14:24:19;-2.00;99.90
46706;DHT22;33519;50.712;7.124;2022-12-18T14:26:50;-2.00;99.90
46706;DHT22;33519;50.712;7.124;2022-12-18T14:29:28;-1.90;99.90
46706;DHT22;33519;50.712;7.124;2022-12-18T14:32:12;-2.00;99.90
46706;DHT22;33519;50.712;7.124;2022-12-18T14:34:51;-2.10;99.90
46706;DHT22;33519;50.712;7.124;2022-12-18T14:37:22;-2.10;99.90
46706;DHT22;33519;50.712;7.124;2022-12-18T14:40:12;-2.10;99.90
46706;DHT22;33519;50.712;7.124;2022-12-18T14:42:39;-2.10;99.90
46706;DHT22;33519;50.712;7.124;2022-12-18T14:45:34;-2.10;99.90
46706;DHT22;33519;50.712;7.124;2022-12-18T14:48:15;-2.10;99.90
46706;DHT22;33519;50.712;7.124;2022-12-18T14:51:16;-2.10;99.90
46706;DHT22;33519;50.712;7.124;2022-12-18T14:53:46;-2.10;99.90
46706;DHT22;33519;50.712;7.124;2022-12-18T14:56:26;-2.10;99.90
46706;DHT22;33519;50.712;7.124;2022-12-18T14:58:54;-2.20;99.90
46706;DHT22;33519;50.712;7.124;2022-12-18T15:01:27;-2.20;99.90
46706;DHT22;33519;50.712;7.124;2022-12-18T15:03:56;-2.30;99.90
46706;DHT22;33519;50.712;7.124;2022-12-18T15:06:32;-2.30;99.90
46706;DHT22;33519;50.712;7.124;2022-12-18T15:09:03;-2.20;99.90
46706;DHT22;33519;50.712;7.124;2022-12-18T15:16:58;-2.20;99.90
46706;DHT22;33519;50.712;7.124;2022-12-18T15:19:40;-2.20;99.90
46706;DHT22;33519;50.712;7.124;2022-12-18T15:22:22;-2.20;99.90
46706;DHT22;33519;50.712;7.124;2022-12-18T15:24:49;-2.30;99.90
46706;DHT22;33519;50.712;7.124;2022-12-18T15:27:32;-2.20;99.90
46706;DHT22;33519;50.712;7.124;2022-12-18T15:32:39;-2.20;99.90
46706;DHT22;33519;50.712;7.124;2022-12-18T15:37:36;-2.30;99.90
46706;DHT22;33519;50.712;7.124;2022-12-18T15:40:03;-2.30;99.90
46706;DHT22;33519;50.712;7.124;2022-12-18T15:42:30;-2.30;99.90
46706;DHT22;33519;50.712;7.124;2022-12-18T15:45:15;-2.30;99.90
46706;DHT22;33519;50.712;7.124;2022-12-18T15:47:46;-2.30;99.90
46706;DHT22;33519;50.712;7.124;2022-12-18T15:50:13;-2.40;99.90
46706;DHT22;33519;50.712;7.124;2022-12-18T15:52:43;-2.40;99.90
46706;DHT22;33519;50.712;7.124;2022-12-18T15:55:14;-2.40;99.90
46706;DHT22;33519;50.712;7.124;2022-12-18T15:58:01;-2.40;99.90
46706;DHT22;33519;50.712;7.124;2022-12-18T16:00:28;-2.40;99.90
46706;DHT22;33519;50.712;7.124;2022-12-18T16:02:54;-2.40;99.90
46706;DHT22;33519;50.712;7.124;2022-12-18T16:05:22;-2.40;99.90
46706;DHT22;33519;50.712;7.124;2022-12-18T16:07:49;-2.40;99.90
46706;DHT22;33519;50.712;7.124;2022-12-18T16:10:16;-2.40;99.90
46706;DHT22;33519;50.712;7.124;2022-12-18T16:12:42;-2.40;99.90
46706;DHT22;33519;50.712;7.124;2022-12-18T16:15:12;-2.40;99.90
46706;DHT22;33519;50.712;7.124;2022-12-18T16:17:43;-2.40;99.90
46706;DHT22;33519;50.712;7.124;2022-12-18T16:20:14;-2.40;99.90
46706;DHT22;33519;50.712;7.124;2022-12-18T16:22:42;-2.40;99.90
46706;DHT22;33519;50.712;7.124;2022-12-18T16:25:18;-2.40;99.90
46706;DHT22;33519;50.712;7.124;2022-12-18T16:27:46;-2.40;99.90
46706;DHT22;33519;50.712;7.124;2022-12-18T16:30:16;-2.40;99.90
46706;DHT22;33519;50.712;7.124;2022-12-18T16:32:43;-2.50;99.90
46706;DHT22;33519;50.712;7.124;2022-12-18T16:35:12;-2.40;99.90
46706;DHT22;33519;50.712;7.124;2022-12-18T16:37:40;-2.50;99.90
46706;DHT22;33519;50.712;7.124;2022-12-18T16:40:09;-2.40;99.90
46706;DHT22;33519;50.712;7.124;2022-12-18T16:45:09;-2.50;99.90
46706;DHT22;33519;50.712;7.124;2022-12-18T16:47:36;-2.50;99.90
46706;DHT22;33519;50.712;7.124;2022-12-18T16:50:04;-2.50;99.90
46706;DHT22;33519;50.712;7.124;2022-12-18T16:52:31;-2.50;99.90
46706;DHT22;33519;50.712;7.124;2022-12-18T16:54:57;-2.50;99.90
46706;DHT22;33519;50.712;7.124;2022-12-18T16:57:24;-2.50;99.90
46706;DHT22;33519;50.712;7.124;2022-12-18T16:59:51;-2.50;99.90
46706;DHT22;33519;50.712;7.124;2022-12-18T17:02:21;-2.50;99.90
46706;DHT22;33519;50.712;7.124;2022-12-18T17:04:51;-2.60;99.90
46706;DHT22;33519;50.712;7.124;2022-12-18T17:07:18;-2.50;99.90
46706;DHT22;33519;50.712;7.124;2022-12-18T17:09:45;-2.60;99.90
46706;DHT22;33519;50.712;7.124;2022-12-18T17:12:11;-2.50;99.90
46706;DHT22;33519;50.712;7.124;2022-12-18T17:14:38;-2.50;99.90
46706;DHT22;33519;50.712;7.124;2022-12-18T17:17:05;-2.50;99.90
46706;DHT22;33519;50.712;7.124;2022-12-18T17:19:47;-2.60;99.90
46706;DHT22;33519;50.712;7.124;2022-12-18T17:22:13;-2.60;99.90
46706;DHT22;33519;50.712;7.124;2022-12-18T17:24:41;-2.60;99.90
46706;DHT22;33519;50.712;7.124;2022-12-18T17:27:08;-2.60;99.90
46706;DHT22;33519;50.712;7.124;2022-12-18T17:29:34;-2.60;99.90
46706;DHT22;33519;50.712;7.124;2022-12-18T17:32:01;-2.60;99.90
46706;DHT22;33519;50.712;7.124;2022-12-18T17:34:28;-2.60;99.90
46706;DHT22;33519;50.712;7.124;2022-12-18T17:36:55;-2.60;99.90